Philadelphia, Pennsylvania
Traffic Map
Current Weather Conditions
Philadelphia, Pennsylvania
Broken Clouds
Broken Clouds
80°
Feels Like: 82°
Wind Chill: 80° Ceiling: 25000
Heat Index: 82° Visibility: 10mi
Dew Point: 64° Wind: 5mph
Humidity: 58% Direction: 150° (SSE)
Pressure: 29.76in Gusts: 0mph
Raw Report DataKPHL 212154Z 15004KT 10SM FEW055 SCT120 BKN250 27/18 A2976 RMK AO2 SLP078 T02670178
Traffic Incident Summary
Active as of:
Severity:
Category:
InformationThere was an issue retrieving the traffic information for this location. Please try a different location or try again shortly.
Advertisements